Bolzano Airport LIPB

Flugplatz Daten

Name: Bolzano Airport

Ident: LIPB

Lat: 46,46020126

Long: 11,3263998

Platzhöhe: 789 ft

IataCode: BZO

City: Bolzano

Homepage: http://www.abd-airport.it/en/home.htm

Metar

2022/08/13 17:50
LIPB 131750Z 16005KT 140V200 CAVOK 27/10 Q1011

Taf

2022/08/13 18:22
TAF LIPB 131700Z 1318/1418 VRB05KT CAVOK
TEMPO 1411/1413 19010KT
BECMG 1416/1418 VRB05KT

Webcams

Airport Airport 2 Panorama
Gewünschte Webcam nicht vorhanden? Dann fügen Sie eine hinzu. Sie wird dann so schnell wie möglich freigeschaltet
Url: Title: